Clear Sky Current Weather (METAR) For Manchester Airport

All times on the weather descriptions are local

Observed at 20:20 - (8 mins ago)

Clear Sky

5°C

Clear Sky
Clouds:
Wind: 110° at 04 knots
Visibility: 8,000m
QNH: 1002
Dew Point: 5°C
Runway in Use: Likely Runways 05L/R

Sunrise Today: 07:53
Sunset Today: 16:00

Forecast Weather (TAF) For Manchester Airport

Issued at 00:00 - (2 days 3 hrs ago)


Runway in Use: Likely Runways 23L/R

Forecast valid until 00:00 on Sunday

METAR/TAF RAW METAR / TAF

EGCC 272020Z 11004KT 8000 NSC 05/05 Q1002 NOSIG

Weather Widget

Put weather from any of our airports on your website with our weather widget.

Find Another Search

Airport Search


Please Wait Please Wait - Loading
Close
Close

Login

Username:

Password:

Remember Me:

Remember me on this computer

Forgotten your password? Get a reset password sent to your registered e-mail address

Close

User Private Message

Subject:

Message: